sensor_id;sensor_type;location;lat;lon;timestamp;P1;durP1;ratioP1;P2;durP2;ratioP2
78991;SDS011;72820;44.838;37.674;2024-03-29T00:00:17;3.45;;;0.50;;
78991;SDS011;72820;44.838;37.674;2024-03-29T00:01:18;2.50;;;0.45;;
78991;SDS011;72820;44.838;37.674;2024-03-29T00:02:20;2.00;;;0.30;;
78991;SDS011;72820;44.838;37.674;2024-03-29T00:03:21;1.35;;;0.28;;
78991;SDS011;72820;44.838;37.674;2024-03-29T00:04:23;2.30;;;0.20;;
78991;SDS011;72820;44.838;37.674;2024-03-29T00:05:24;1.92;;;0.22;;
78991;SDS011;72820;44.838;37.674;2024-03-29T00:06:25;1.35;;;0.10;;
78991;SDS011;72820;44.838;37.674;2024-03-29T00:07:27;3.92;;;0.25;;
78991;SDS011;72820;44.838;37.674;2024-03-29T00:08:28;4.20;;;0.40;;
78991;SDS011;72820;44.838;37.674;2024-03-29T00:09:29;3.42;;;0.40;;
78991;SDS011;72820;44.838;37.674;2024-03-29T00:10:31;4.10;;;0.30;;
78991;SDS011;72820;44.838;37.674;2024-03-29T00:11:34;1.58;;;0.10;;
78991;SDS011;72820;44.838;37.674;2024-03-29T00:12:35;2.40;;;0.10;;
78991;SDS011;72820;44.838;37.674;2024-03-29T00:13:36;2.20;;;0.28;;
78991;SDS011;72820;44.838;37.674;2024-03-29T00:14:38;1.70;;;0.38;;
78991;SDS011;72820;44.838;37.674;2024-03-29T00:15:40;2.55;;;0.30;;
78991;SDS011;72820;44.838;37.674;2024-03-29T00:16:42;2.08;;;0.28;;
78991;SDS011;72820;44.838;37.674;2024-03-29T00:17:43;2.35;;;0.32;;
78991;SDS011;72820;44.838;37.674;2024-03-29T00:18:44;2.92;;;0.28;;
78991;SDS011;72820;44.838;37.674;2024-03-29T00:19:45;2.40;;;0.22;;
78991;SDS011;72820;44.838;37.674;2024-03-29T00:20:47;2.67;;;0.30;;
78991;SDS011;72820;44.838;37.674;2024-03-29T00:21:48;1.75;;;0.20;;
78991;SDS011;72820;44.838;37.674;2024-03-29T00:22:50;3.08;;;0.20;;
78991;SDS011;72820;44.838;37.674;2024-03-29T00:23:51;3.28;;;0.32;;
78991;SDS011;72820;44.838;37.674;2024-03-29T00:24:52;2.35;;;0.52;;
78991;SDS011;72820;44.838;37.674;2024-03-29T00:25:54;2.35;;;0.17;;
78991;SDS011;72820;44.838;37.674;2024-03-29T00:26:58;2.40;;;0.20;;
78991;SDS011;72820;44.838;37.674;2024-03-29T00:28:00;3.42;;;0.22;;
78991;SDS011;72820;44.838;37.674;2024-03-29T00:29:02;3.63;;;0.30;;
78991;SDS011;72820;44.838;37.674;2024-03-29T00:30:03;2.88;;;0.10;;
78991;SDS011;72820;44.838;37.674;2024-03-29T00:31:05;2.85;;;0.13;;
78991;SDS011;72820;44.838;37.674;2024-03-29T00:32:08;4.18;;;0.60;;
78991;SDS011;72820;44.838;37.674;2024-03-29T00:33:09;5.40;;;0.60;;
78991;SDS011;72820;44.838;37.674;2024-03-29T00:34:11;4.80;;;0.95;;
78991;SDS011;72820;44.838;37.674;2024-03-29T00:35:12;5.68;;;1.05;;
78991;SDS011;72820;44.838;37.674;2024-03-29T00:36:15;3.88;;;0.63;;
78991;SDS011;72820;44.838;37.674;2024-03-29T00:37:16;3.28;;;0.40;;
78991;SDS011;72820;44.838;37.674;2024-03-29T00:38:18;4.05;;;1.05;;
78991;SDS011;72820;44.838;37.674;2024-03-29T00:39:19;4.22;;;1.02;;
78991;SDS011;72820;44.838;37.674;2024-03-29T00:40:21;5.18;;;1.02;;
78991;SDS011;72820;44.838;37.674;2024-03-29T00:41:22;2.95;;;0.88;;
78991;SDS011;72820;44.838;37.674;2024-03-29T00:42:24;3.45;;;0.30;;
78991;SDS011;72820;44.838;37.674;2024-03-29T00:43:25;2.47;;;0.10;;
78991;SDS011;72820;44.838;37.674;2024-03-29T00:44:26;2.10;;;0.20;;
78991;SDS011;72820;44.838;37.674;2024-03-29T00:45:28;6.30;;;0.75;;
78991;SDS011;72820;44.838;37.674;2024-03-29T00:46:29;2.05;;;0.22;;
78991;SDS011;72820;44.838;37.674;2024-03-29T00:47:31;3.38;;;0.25;;
78991;SDS011;72820;44.838;37.674;2024-03-29T00:48:33;2.15;;;0.10;;
78991;SDS011;72820;44.838;37.674;2024-03-29T00:49:34;2.63;;;0.13;;
78991;SDS011;72820;44.838;37.674;2024-03-29T00:50:36;2.70;;;0.28;;
78991;SDS011;72820;44.838;37.674;2024-03-29T00:51:38;3.88;;;0.38;;
78991;SDS011;72820;44.838;37.674;2024-03-29T00:52:40;2.03;;;0.30;;
78991;SDS011;72820;44.838;37.674;2024-03-29T00:53:41;1.92;;;0.35;;
78991;SDS011;72820;44.838;37.674;2024-03-29T00:54:43;2.33;;;0.13;;
78991;SDS011;72820;44.838;37.674;2024-03-29T00:55:44;2.45;;;0.30;;
78991;SDS011;72820;44.838;37.674;2024-03-29T00:56:45;1.73;;;0.20;;
78991;SDS011;72820;44.838;37.674;2024-03-29T00:57:47;3.40;;;0.52;;
78991;SDS011;72820;44.838;37.674;2024-03-29T00:58:48;3.47;;;0.35;;
78991;SDS011;72820;44.838;37.674;2024-03-29T00:59:49;1.75;;;0.28;;
78991;SDS011;72820;44.838;37.674;2024-03-29T01:00:51;1.35;;;0.10;;
78991;SDS011;72820;44.838;37.674;2024-03-29T01:01:52;2.13;;;0.20;;
78991;SDS011;72820;44.838;37.674;2024-03-29T01:02:53;1.42;;;0.10;;
78991;SDS011;72820;44.838;37.674;2024-03-29T01:03:55;1.13;;;0.30;;
78991;SDS011;72820;44.838;37.674;2024-03-29T01:04:56;1.00;;;0.00;;
78991;SDS011;72820;44.838;37.674;2024-03-29T01:05:57;1.23;;;0.10;;
78991;SDS011;72820;44.838;37.674;2024-03-29T01:06:59;0.30;;;0.00;;
78991;SDS011;72820;44.838;37.674;2024-03-29T01:08:00;1.00;;;0.10;;
78991;SDS011;72820;44.838;37.674;2024-03-29T01:09:01;3.65;;;0.10;;
78991;SDS011;72820;44.838;37.674;2024-03-29T01:10:04;3.35;;;0.10;;
78991;SDS011;72820;44.838;37.674;2024-03-29T01:11:06;0.82;;;0.05;;
78991;SDS011;72820;44.838;37.674;2024-03-29T01:12:07;1.38;;;0.22;;
78991;SDS011;72820;44.838;37.674;2024-03-29T01:13:09;2.13;;;0.10;;
78991;SDS011;72820;44.838;37.674;2024-03-29T01:14:10;1.48;;;0.22;;
78991;SDS011;72820;44.838;37.674;2024-03-29T01:15:11;2.03;;;0.20;;
78991;SDS011;72820;44.838;37.674;2024-03-29T01:16:13;2.22;;;0.10;;
78991;SDS011;72820;44.838;37.674;2024-03-29T01:17:14;2.25;;;0.10;;
78991;SDS011;72820;44.838;37.674;2024-03-29T01:18:15;1.42;;;0.20;;
78991;SDS011;72820;44.838;37.674;2024-03-29T01:19:17;2.85;;;0.30;;
78991;SDS011;72820;44.838;37.674;2024-03-29T01:20:18;2.50;;;0.20;;
78991;SDS011;72820;44.838;37.674;2024-03-29T01:21:20;1.42;;;0.20;;
78991;SDS011;72820;44.838;37.674;2024-03-29T01:22:21;3.00;;;0.28;;
78991;SDS011;72820;44.838;37.674;2024-03-29T01:23:22;1.25;;;0.38;;
78991;SDS011;72820;44.838;37.674;2024-03-29T01:24:24;2.30;;;0.10;;
78991;SDS011;72820;44.838;37.674;2024-03-29T01:25:25;1.45;;;0.10;;
78991;SDS011;72820;44.838;37.674;2024-03-29T01:26:28;1.20;;;0.10;;
78991;SDS011;72820;44.838;37.674;2024-03-29T01:27:29;0.85;;;0.00;;
78991;SDS011;72820;44.838;37.674;2024-03-29T01:28:31;0.95;;;0.10;;
78991;SDS011;72820;44.838;37.674;2024-03-29T01:29:32;1.48;;;0.20;;
78991;SDS011;72820;44.838;37.674;2024-03-29T01:30:34;2.80;;;0.10;;
78991;SDS011;72820;44.838;37.674;2024-03-29T01:31:35;0.63;;;0.00;;
78991;SDS011;72820;44.838;37.674;2024-03-29T01:32:37;1.38;;;0.13;;
78991;SDS011;72820;44.838;37.674;2024-03-29T01:33:42;1.77;;;0.40;;
78991;SDS011;72820;44.838;37.674;2024-03-29T01:34:44;0.88;;;0.20;;
78991;SDS011;72820;44.838;37.674;2024-03-29T01:35:45;1.52;;;0.10;;
78991;SDS011;72820;44.838;37.674;2024-03-29T01:36:47;1.25;;;0.20;;
78991;SDS011;72820;44.838;37.674;2024-03-29T01:37:48;2.10;;;0.17;;
78991;SDS011;72820;44.838;37.674;2024-03-29T01:38:50;2.58;;;0.45;;
78991;SDS011;72820;44.838;37.674;2024-03-29T01:40:56;1.48;;;0.05;;
78991;SDS011;72820;44.838;37.674;2024-03-29T01:41:58;1.52;;;0.10;;
78991;SDS011;72820;44.838;37.674;2024-03-29T01:43:00;2.00;;;0.20;;
78991;SDS011;72820;44.838;37.674;2024-03-29T01:44:02;1.90;;;0.10;;
78991;SDS011;72820;44.838;37.674;2024-03-29T01:45:04;1.13;;;0.05;;
78991;SDS011;72820;44.838;37.674;2024-03-29T01:46:06;0.80;;;0.05;;
78991;SDS011;72820;44.838;37.674;2024-03-29T01:47:08;1.55;;;0.28;;
78991;SDS011;72820;44.838;37.674;2024-03-29T01:48:10;1.00;;;0.10;;
78991;SDS011;72820;44.838;37.674;2024-03-29T01:49:11;1.00;;;0.10;;
78991;SDS011;72820;44.838;37.674;2024-03-29T01:50:13;0.88;;;0.20;;
78991;SDS011;72820;44.838;37.674;2024-03-29T01:51:15;1.05;;;0.22;;
78991;SDS011;72820;44.838;37.674;2024-03-29T01:52:17;0.98;;;0.20;;
78991;SDS011;72820;44.838;37.674;2024-03-29T01:53:21;1.40;;;0.10;;
78991;SDS011;72820;44.838;37.674;2024-03-29T01:54:23;0.75;;;0.10;;
78991;SDS011;72820;44.838;37.674;2024-03-29T01:55:24;0.60;;;0.00;;
78991;SDS011;72820;44.838;37.674;2024-03-29T01:56:29;0.50;;;0.00;;
78991;SDS011;72820;44.838;37.674;2024-03-29T01:57:32;1.38;;;0.10;;
78991;SDS011;72820;44.838;37.674;2024-03-29T01:58:33;1.23;;;0.20;;
78991;SDS011;72820;44.838;37.674;2024-03-29T01:59:35;1.33;;;0.20;;
78991;SDS011;72820;44.838;37.674;2024-03-29T02:00:41;1.10;;;0.20;;
78991;SDS011;72820;44.838;37.674;2024-03-29T02:01:45;2.55;;;0.22;;
78991;SDS011;72820;44.838;37.674;2024-03-29T02:02:47;1.35;;;0.10;;
78991;SDS011;72820;44.838;37.674;2024-03-29T02:03:49;1.30;;;0.30;;
78991;SDS011;72820;44.838;37.674;2024-03-29T02:04:53;1.33;;;0.20;;
78991;SDS011;72820;44.838;37.674;2024-03-29T02:05:54;1.00;;;0.10;;
78991;SDS011;72820;44.838;37.674;2024-03-29T02:06:58;3.20;;;0.10;;
78991;SDS011;72820;44.838;37.674;2024-03-29T02:07:59;1.42;;;0.10;;
78991;SDS011;72820;44.838;37.674;2024-03-29T02:09:01;2.10;;;0.10;;
78991;SDS011;72820;44.838;37.674;2024-03-29T02:10:04;0.93;;;0.10;;
78991;SDS011;72820;44.838;37.674;2024-03-29T02:11:09;1.40;;;0.10;;
78991;SDS011;72820;44.838;37.674;2024-03-29T02:12:10;2.35;;;0.40;;
78991;SDS011;72820;44.838;37.674;2024-03-29T02:13:11;3.17;;;0.68;;
78991;SDS011;72820;44.838;37.674;2024-03-29T02:14:13;2.63;;;0.43;;
78991;SDS011;72820;44.838;37.674;2024-03-29T02:15:14;1.90;;;0.30;;
78991;SDS011;72820;44.838;37.674;2024-03-29T02:16:19;4.03;;;0.50;;
78991;SDS011;72820;44.838;37.674;2024-03-29T02:17:20;2.80;;;0.30;;
78991;SDS011;72820;44.838;37.674;2024-03-29T02:18:22;1.60;;;0.20;;
78991;SDS011;72820;44.838;37.674;2024-03-29T02:19:23;2.67;;;0.10;;
78991;SDS011;72820;44.838;37.674;2024-03-29T02:20:24;1.05;;;0.10;;
78991;SDS011;72820;44.838;37.674;2024-03-29T02:21:27;1.48;;;0.38;;
78991;SDS011;72820;44.838;37.674;2024-03-29T02:22:28;1.42;;;0.10;;
78991;SDS011;72820;44.838;37.674;2024-03-29T02:23:32;1.13;;;0.10;;
78991;SDS011;72820;44.838;37.674;2024-03-29T02:24:36;0.73;;;0.10;;
78991;SDS011;72820;44.838;37.674;2024-03-29T02:25:38;1.50;;;0.17;;
78991;SDS011;72820;44.838;37.674;2024-03-29T02:26:39;1.08;;;0.22;;
78991;SDS011;72820;44.838;37.674;2024-03-29T02:27:42;1.50;;;0.10;;
78991;SDS011;72820;44.838;37.674;2024-03-29T02:28:44;1.77;;;0.28;;
78991;SDS011;72820;44.838;37.674;2024-03-29T02:29:45;0.95;;;0.10;;
78991;SDS011;72820;44.838;37.674;2024-03-29T02:30:47;2.22;;;0.20;;
78991;SDS011;72820;44.838;37.674;2024-03-29T02:31:48;1.67;;;0.38;;
78991;SDS011;72820;44.838;37.674;2024-03-29T02:32:50;1.40;;;0.25;;
78991;SDS011;72820;44.838;37.674;2024-03-29T02:33:51;2.17;;;0.40;;
78991;SDS011;72820;44.838;37.674;2024-03-29T02:34:53;2.60;;;0.30;;
78991;SDS011;72820;44.838;37.674;2024-03-29T02:35:54;1.75;;;0.10;;
78991;SDS011;72820;44.838;37.674;2024-03-29T02:36:56;0.77;;;0.00;;
78991;SDS011;72820;44.838;37.674;2024-03-29T02:37:57;0.95;;;0.05;;
78991;SDS011;72820;44.838;37.674;2024-03-29T02:38:59;1.35;;;0.13;;
78991;SDS011;72820;44.838;37.674;2024-03-29T02:40:00;1.63;;;0.00;;
78991;SDS011;72820;44.838;37.674;2024-03-29T02:41:02;1.42;;;0.10;;
78991;SDS011;72820;44.838;37.674;2024-03-29T02:42:03;3.30;;;0.10;;
78991;SDS011;72820;44.838;37.674;2024-03-29T02:43:05;2.15;;;0.10;;
78991;SDS011;72820;44.838;37.674;2024-03-29T02:44:07;1.77;;;0.05;;
78991;SDS011;72820;44.838;37.674;2024-03-29T02:45:08;1.10;;;0.17;;
78991;SDS011;72820;44.838;37.674;2024-03-29T02:46:10;1.30;;;0.10;;
78991;SDS011;72820;44.838;37.674;2024-03-29T02:47:11;1.38;;;0.20;;
78991;SDS011;72820;44.838;37.674;2024-03-29T02:48:12;1.23;;;0.20;;
78991;SDS011;72820;44.838;37.674;2024-03-29T02:49:14;2.25;;;0.20;;
78991;SDS011;72820;44.838;37.674;2024-03-29T02:50:15;2.25;;;0.10;;
78991;SDS011;72820;44.838;37.674;2024-03-29T02:51:17;2.45;;;0.20;;
78991;SDS011;72820;44.838;37.674;2024-03-29T02:52:18;1.25;;;0.20;;
78991;SDS011;72820;44.838;37.674;2024-03-29T02:53:19;1.23;;;0.22;;
78991;SDS011;72820;44.838;37.674;2024-03-29T02:54:21;1.33;;;0.25;;
78991;SDS011;72820;44.838;37.674;2024-03-29T02:55:23;2.33;;;0.20;;
78991;SDS011;72820;44.838;37.674;2024-03-29T02:56:24;0.80;;;0.03;;
78991;SDS011;72820;44.838;37.674;2024-03-29T02:57:27;0.95;;;0.00;;
78991;SDS011;72820;44.838;37.674;2024-03-29T02:58:29;0.80;;;0.08;;
78991;SDS011;72820;44.838;37.674;2024-03-29T02:59:30;1.35;;;0.00;;
78991;SDS011;72820;44.838;37.674;2024-03-29T03:00:33;0.98;;;0.08;;
78991;SDS011;72820;44.838;37.674;2024-03-29T03:01:34;0.85;;;0.20;;
78991;SDS011;72820;44.838;37.674;2024-03-29T03:02:38;1.67;;;0.13;;
78991;SDS011;72820;44.838;37.674;2024-03-29T03:03:40;1.20;;;0.20;;
78991;SDS011;72820;44.838;37.674;2024-03-29T03:04:41;2.25;;;0.30;;
78991;SDS011;72820;44.838;37.674;2024-03-29T03:05:43;1.65;;;0.10;;
78991;SDS011;72820;44.838;37.674;2024-03-29T03:06:44;1.67;;;0.20;;
78991;SDS011;72820;44.838;37.674;2024-03-29T03:07:45;1.38;;;0.20;;
78991;SDS011;72820;44.838;37.674;2024-03-29T03:09:05;1.70;;;0.10;;
78991;SDS011;72820;44.838;37.674;2024-03-29T03:10:32;1.30;;;0.15;;
78991;SDS011;72820;44.838;37.674;2024-03-29T03:11:52;2.45;;;0.20;;
78991;SDS011;72820;44.838;37.674;2024-03-29T03:12:54;3.22;;;0.22;;
78991;SDS011;72820;44.838;37.674;2024-03-29T03:13:55;1.15;;;0.00;;
78991;SDS011;72820;44.838;37.674;2024-03-29T03:14:57;1.50;;;0.10;;
78991;SDS011;72820;44.838;37.674;2024-03-29T03:15:59;1.20;;;0.17;;
78991;SDS011;72820;44.838;37.674;2024-03-29T03:17:00;1.77;;;0.05;;
78991;SDS011;72820;44.838;37.674;2024-03-29T03:18:02;0.63;;;0.00;;
78991;SDS011;72820;44.838;37.674;2024-03-29T03:19:03;3.20;;;0.10;;
78991;SDS011;72820;44.838;37.674;2024-03-29T03:20:05;1.67;;;0.10;;
78991;SDS011;72820;44.838;37.674;2024-03-29T03:21:07;1.20;;;0.10;;
78991;SDS011;72820;44.838;37.674;2024-03-29T03:22:09;2.38;;;0.17;;
78991;SDS011;72820;44.838;37.674;2024-03-29T03:23:10;4.20;;;0.40;;
78991;SDS011;72820;44.838;37.674;2024-03-29T03:24:11;1.58;;;0.20;;
78991;SDS011;72820;44.838;37.674;2024-03-29T03:25:13;1.30;;;0.10;;
78991;SDS011;72820;44.838;37.674;2024-03-29T03:26:14;1.70;;;0.20;;
78991;SDS011;72820;44.838;37.674;2024-03-29T03:27:15;1.65;;;0.20;;
78991;SDS011;72820;44.838;37.674;2024-03-29T03:28:17;2.35;;;0.22;;
78991;SDS011;72820;44.838;37.674;2024-03-29T03:29:18;0.90;;;0.20;;
78991;SDS011;72820;44.838;37.674;2024-03-29T03:30:19;1.27;;;0.15;;
78991;SDS011;72820;44.838;37.674;2024-03-29T03:31:21;1.38;;;0.10;;
78991;SDS011;72820;44.838;37.674;2024-03-29T03:32:22;0.82;;;0.20;;
78991;SDS011;72820;44.838;37.674;2024-03-29T03:33:23;3.63;;;0.22;;
78991;SDS011;72820;44.838;37.674;2024-03-29T03:34:25;1.58;;;0.28;;
78991;SDS011;72820;44.838;37.674;2024-03-29T03:35:26;1.50;;;0.00;;
78991;SDS011;72820;44.838;37.674;2024-03-29T03:36:28;1.40;;;0.00;;
78991;SDS011;72820;44.838;37.674;2024-03-29T03:37:29;3.50;;;0.10;;
78991;SDS011;72820;44.838;37.674;2024-03-29T03:38:30;2.08;;;0.00;;
78991;SDS011;72820;44.838;37.674;2024-03-29T03:39:32;3.50;;;0.43;;
78991;SDS011;72820;44.838;37.674;2024-03-29T03:40:33;1.65;;;0.00;;
78991;SDS011;72820;44.838;37.674;2024-03-29T03:41:35;0.43;;;0.00;;
78991;SDS011;72820;44.838;37.674;2024-03-29T03:42:36;1.15;;;0.05;;
78991;SDS011;72820;44.838;37.674;2024-03-29T03:43:37;1.45;;;0.15;;
78991;SDS011;72820;44.838;37.674;2024-03-29T03:44:39;1.10;;;0.20;;
78991;SDS011;72820;44.838;37.674;2024-03-29T03:45:40;1.52;;;0.17;;
78991;SDS011;72820;44.838;37.674;2024-03-29T03:46:42;0.85;;;0.10;;
78991;SDS011;72820;44.838;37.674;2024-03-29T03:47:43;1.05;;;0.20;;
78991;SDS011;72820;44.838;37.674;2024-03-29T03:48:44;1.25;;;0.30;;
78991;SDS011;72820;44.838;37.674;2024-03-29T03:49:46;2.53;;;0.25;;
78991;SDS011;72820;44.838;37.674;2024-03-29T03:50:47;3.55;;;0.30;;
78991;SDS011;72820;44.838;37.674;2024-03-29T03:51:49;3.13;;;0.13;;
78991;SDS011;72820;44.838;37.674;2024-03-29T03:52:50;4.22;;;0.20;;
78991;SDS011;72820;44.838;37.674;2024-03-29T03:53:51;2.88;;;0.35;;
78991;SDS011;72820;44.838;37.674;2024-03-29T03:54:53;1.30;;;0.20;;
78991;SDS011;72820;44.838;37.674;2024-03-29T03:55:54;1.30;;;0.10;;
78991;SDS011;72820;44.838;37.674;2024-03-29T03:56:55;2.03;;;0.20;;
78991;SDS011;72820;44.838;37.674;2024-03-29T03:57:57;2.30;;;0.20;;
78991;SDS011;72820;44.838;37.674;2024-03-29T03:58:58;1.42;;;0.10;;
78991;SDS011;72820;44.838;37.674;2024-03-29T04:00:00;1.95;;;0.35;;
78991;SDS011;72820;44.838;37.674;2024-03-29T04:01:04;0.50;;;0.00;;
78991;SDS011;72820;44.838;37.674;2024-03-29T04:02:06;1.83;;;0.20;;
78991;SDS011;72820;44.838;37.674;2024-03-29T04:03:07;2.55;;;0.15;;
78991;SDS011;72820;44.838;37.674;2024-03-29T04:04:09;3.20;;;0.30;;
78991;SDS011;72820;44.838;37.674;2024-03-29T04:05:10;4.75;;;0.45;;
78991;SDS011;72820;44.838;37.674;2024-03-29T04:06:12;2.05;;;0.38;;
78991;SDS011;72820;44.838;37.674;2024-03-29T04:07:13;9.82;;;0.68;;
78991;SDS011;72820;44.838;37.674;2024-03-29T04:08:15;1.35;;;0.28;;
78991;SDS011;72820;44.838;37.674;2024-03-29T04:09:18;1.40;;;0.20;;
78991;SDS011;72820;44.838;37.674;2024-03-29T04:10:20;4.85;;;0.25;;
78991;SDS011;72820;44.838;37.674;2024-03-29T04:11:21;2.05;;;0.22;;
78991;SDS011;72820;44.838;37.674;2024-03-29T04:12:22;3.45;;;0.38;;
78991;SDS011;72820;44.838;37.674;2024-03-29T04:13:26;2.50;;;0.00;;
78991;SDS011;72820;44.838;37.674;2024-03-29T04:14:27;1.52;;;0.10;;
78991;SDS011;72820;44.838;37.674;2024-03-29T04:15:28;5.18;;;0.47;;
78991;SDS011;72820;44.838;37.674;2024-03-29T04:16:30;2.60;;;0.22;;
78991;SDS011;72820;44.838;37.674;2024-03-29T04:17:31;1.38;;;0.10;;
78991;SDS011;72820;44.838;37.674;2024-03-29T04:18:34;5.57;;;0.40;;
78991;SDS011;72820;44.838;37.674;2024-03-29T04:19:35;1.17;;;0.10;;
78991;SDS011;72820;44.838;37.674;2024-03-29T04:20:37;4.22;;;0.50;;
78991;SDS011;72820;44.838;37.674;2024-03-29T04:21:38;1.60;;;0.17;;
78991;SDS011;72820;44.838;37.674;2024-03-29T04:22:39;2.88;;;0.22;;
78991;SDS011;72820;44.838;37.674;2024-03-29T04:23:41;2.03;;;0.35;;
78991;SDS011;72820;44.838;37.674;2024-03-29T04:24:42;1.92;;;0.30;;
78991;SDS011;72820;44.838;37.674;2024-03-29T04:25:51;3.65;;;0.30;;
78991;SDS011;72820;44.838;37.674;2024-03-29T04:26:55;2.92;;;0.10;;
78991;SDS011;72820;44.838;37.674;2024-03-29T04:27:56;5.72;;;0.38;;
78991;SDS011;72820;44.838;37.674;2024-03-29T04:28:58;4.88;;;0.40;;
78991;SDS011;72820;44.838;37.674;2024-03-29T04:29:59;3.50;;;0.40;;
78991;SDS011;72820;44.838;37.674;2024-03-29T04:31:00;3.13;;;0.43;;
78991;SDS011;72820;44.838;37.674;2024-03-29T04:32:02;2.88;;;0.50;;
78991;SDS011;72820;44.838;37.674;2024-03-29T04:33:04;3.88;;;0.47;;
78991;SDS011;72820;44.838;37.674;2024-03-29T04:34:05;1.27;;;0.17;;
78991;SDS011;72820;44.838;37.674;2024-03-29T04:35:07;1.77;;;0.20;;
78991;SDS011;72820;44.838;37.674;2024-03-29T04:36:08;1.27;;;0.17;;
78991;SDS011;72820;44.838;37.674;2024-03-29T04:37:10;3.45;;;0.30;;
78991;SDS011;72820;44.838;37.674;2024-03-29T04:38:11;5.43;;;0.50;;
78991;SDS011;72820;44.838;37.674;2024-03-29T04:39:12;1.77;;;0.20;;
78991;SDS011;72820;44.838;37.674;2024-03-29T04:40:14;2.22;;;0.20;;
78991;SDS011;72820;44.838;37.674;2024-03-29T04:41:16;1.83;;;0.22;;
78991;SDS011;72820;44.838;37.674;2024-03-29T04:42:17;3.53;;;0.40;;
78991;SDS011;72820;44.838;37.674;2024-03-29T04:43:20;5.25;;;0.30;;
78991;SDS011;72820;44.838;37.674;2024-03-29T04:44:23;1.90;;;0.32;;
78991;SDS011;72820;44.838;37.674;2024-03-29T04:45:26;4.05;;;0.30;;
78991;SDS011;72820;44.838;37.674;2024-03-29T04:46:31;3.08;;;0.15;;
78991;SDS011;72820;44.838;37.674;2024-03-29T04:47:32;3.10;;;0.40;;
78991;SDS011;72820;44.838;37.674;2024-03-29T04:48:34;2.03;;;0.10;;
78991;SDS011;72820;44.838;37.674;2024-03-29T04:49:35;12.25;;;4.80;;
78991;SDS011;72820;44.838;37.674;2024-03-29T04:50:40;21.02;;;8.98;;
78991;SDS011;72820;44.838;37.674;2024-03-29T04:51:41;6.75;;;1.70;;
78991;SDS011;72820;44.838;37.674;2024-03-29T04:52:43;3.10;;;0.38;;
78991;SDS011;72820;44.838;37.674;2024-03-29T04:53:44;2.88;;;0.45;;
78991;SDS011;72820;44.838;37.674;2024-03-29T04:54:46;2.58;;;0.20;;
78991;SDS011;72820;44.838;37.674;2024-03-29T04:55:52;1.80;;;0.40;;
78991;SDS011;72820;44.838;37.674;2024-03-29T04:56:54;4.95;;;0.95;;
78991;SDS011;72820;44.838;37.674;2024-03-29T04:57:56;4.82;;;0.30;;
78991;SDS011;72820;44.838;37.674;2024-03-29T04:58:57;4.10;;;0.30;;
78991;SDS011;72820;44.838;37.674;2024-03-29T04:59:59;4.40;;;0.35;;
78991;SDS011;72820;44.838;37.674;2024-03-29T05:01:01;1.55;;;0.10;;
78991;SDS011;72820;44.838;37.674;2024-03-29T05:02:02;4.38;;;0.85;;
78991;SDS011;72820;44.838;37.674;2024-03-29T05:03:03;3.70;;;0.40;;
78991;SDS011;72820;44.838;37.674;2024-03-29T05:04:05;5.75;;;0.30;;
78991;SDS011;72820;44.838;37.674;2024-03-29T05:05:07;2.40;;;0.30;;
78991;SDS011;72820;44.838;37.674;2024-03-29T05:06:08;13.05;;;3.13;;
78991;SDS011;72820;44.838;37.674;2024-03-29T05:07:09;1.70;;;0.22;;
78991;SDS011;72820;44.838;37.674;2024-03-29T05:08:12;2.92;;;0.55;;
78991;SDS011;72820;44.838;37.674;2024-03-29T05:09:13;1.50;;;0.20;;
78991;SDS011;72820;44.838;37.674;2024-03-29T05:10:15;4.78;;;0.55;;
78991;SDS011;72820;44.838;37.674;2024-03-29T05:11:17;2.72;;;0.75;;
78991;SDS011;72820;44.838;37.674;2024-03-29T05:12:18;4.55;;;0.40;;
78991;SDS011;72820;44.838;37.674;2024-03-29T05:13:20;2.00;;;0.30;;
78991;SDS011;72820;44.838;37.674;2024-03-29T05:14:21;1.88;;;0.30;;
78991;SDS011;72820;44.838;37.674;2024-03-29T05:15:23;1.70;;;0.57;;
78991;SDS011;72820;44.838;37.674;2024-03-29T05:16:24;66.05;;;27.67;;
78991;SDS011;72820;44.838;37.674;2024-03-29T05:17:25;76.97;;;34.15;;
78991;SDS011;72820;44.838;37.674;2024-03-29T05:18:28;39.67;;;16.90;;
78991;SDS011;72820;44.838;37.674;2024-03-29T05:19:29;39.50;;;18.80;;
78991;SDS011;72820;44.838;37.674;2024-03-29T05:20:30;17.38;;;8.15;;
78991;SDS011;72820;44.838;37.674;2024-03-29T05:21:32;11.15;;;4.40;;
78991;SDS011;72820;44.838;37.674;2024-03-29T05:22:33;13.02;;;6.45;;
78991;SDS011;72820;44.838;37.674;2024-03-29T05:23:34;7.35;;;2.83;;
78991;SDS011;72820;44.838;37.674;2024-03-29T05:24:36;10.50;;;4.25;;
78991;SDS011;72820;44.838;37.674;2024-03-29T05:25:37;14.98;;;3.28;;
78991;SDS011;72820;44.838;37.674;2024-03-29T05:26:39;27.17;;;2.78;;
78991;SDS011;72820;44.838;37.674;2024-03-29T05:27:40;5.57;;;1.30;;
78991;SDS011;72820;44.838;37.674;2024-03-29T05:28:42;3.10;;;0.60;;
78991;SDS011;72820;44.838;37.674;2024-03-29T05:29:43;3.50;;;0.52;;
78991;SDS011;72820;44.838;37.674;2024-03-29T05:30:45;3.58;;;0.30;;
78991;SDS011;72820;44.838;37.674;2024-03-29T05:31:46;5.93;;;0.85;;
78991;SDS011;72820;44.838;37.674;2024-03-29T05:32:47;1.90;;;0.38;;
78991;SDS011;72820;44.838;37.674;2024-03-29T05:33:49;2.38;;;0.43;;
78991;SDS011;72820;44.838;37.674;2024-03-29T05:34:50;2.53;;;0.50;;
78991;SDS011;72820;44.838;37.674;2024-03-29T05:35:51;11.65;;;1.00;;
78991;SDS011;72820;44.838;37.674;2024-03-29T05:36:53;8.88;;;1.80;;
78991;SDS011;72820;44.838;37.674;2024-03-29T05:37:54;6.47;;;0.60;;
78991;SDS011;72820;44.838;37.674;2024-03-29T05:38:55;25.55;;;12.10;;
78991;SDS011;72820;44.838;37.674;2024-03-29T05:39:57;73.95;;;37.47;;
78991;SDS011;72820;44.838;37.674;2024-03-29T05:41:01;9.38;;;3.35;;
78991;SDS011;72820;44.838;37.674;2024-03-29T05:42:02;4.88;;;0.77;;
78991;SDS011;72820;44.838;37.674;2024-03-29T05:43:03;3.30;;;0.63;;
78991;SDS011;72820;44.838;37.674;2024-03-29T05:44:05;4.75;;;0.30;;
78991;SDS011;72820;44.838;37.674;2024-03-29T05:45:20;4.88;;;0.47;;
78991;SDS011;72820;44.838;37.674;2024-03-29T05:46:31;4.30;;;0.30;;
78991;SDS011;72820;44.838;37.674;2024-03-29T05:47:33;2.17;;;0.32;;
78991;SDS011;72820;44.838;37.674;2024-03-29T05:48:34;4.22;;;0.63;;
78991;SDS011;72820;44.838;37.674;2024-03-29T05:49:36;1.67;;;0.22;;
78991;SDS011;72820;44.838;37.674;2024-03-29T05:50:37;4.68;;;0.30;;
78991;SDS011;72820;44.838;37.674;2024-03-29T05:51:38;12.57;;;0.32;;
78991;SDS011;72820;44.838;37.674;2024-03-29T05:52:40;1.98;;;0.20;;
78991;SDS011;72820;44.838;37.674;2024-03-29T05:53:41;3.17;;;0.30;;
78991;SDS011;72820;44.838;37.674;2024-03-29T05:54:43;2.17;;;0.20;;
78991;SDS011;72820;44.838;37.674;2024-03-29T05:55:45;1.73;;;0.30;;
78991;SDS011;72820;44.838;37.674;2024-03-29T05:56:46;4.97;;;0.20;;
78991;SDS011;72820;44.838;37.674;2024-03-29T05:57:48;2.15;;;0.20;;
78991;SDS011;72820;44.838;37.674;2024-03-29T05:58:49;2.80;;;0.65;;
78991;SDS011;72820;44.838;37.674;2024-03-29T05:59:50;2.13;;;0.10;;
78991;SDS011;72820;44.838;37.674;2024-03-29T06:00:53;2.38;;;0.40;;
78991;SDS011;72820;44.838;37.674;2024-03-29T06:01:54;1.48;;;0.20;;
78991;SDS011;72820;44.838;37.674;2024-03-29T06:02:55;2.30;;;0.10;;
78991;SDS011;72820;44.838;37.674;2024-03-29T06:03:58;2.53;;;0.20;;
78991;SDS011;72820;44.838;37.674;2024-03-29T06:05:05;1.98;;;0.10;;
78991;SDS011;72820;44.838;37.674;2024-03-29T06:06:06;2.72;;;0.20;;
78991;SDS011;72820;44.838;37.674;2024-03-29T06:07:08;3.97;;;0.28;;
78991;SDS011;72820;44.838;37.674;2024-03-29T06:08:09;3.20;;;0.38;;